createdAt,value
2022-11-25T00:01:41.734Z,52.92
2022-11-25T00:04:09.220Z,54.40
2022-11-25T00:06:36.760Z,55.13
2022-11-25T00:09:08.373Z,56.10
2022-11-25T00:11:39.925Z,52.88
2022-11-25T00:14:08.801Z,51.75
2022-11-25T00:16:36.283Z,52.78
2022-11-25T00:19:03.932Z,52.67
2022-11-25T00:21:33.779Z,52.90
2022-11-25T00:24:04.129Z,54.15
2022-11-25T00:26:35.310Z,53.13
2022-11-25T00:29:04.835Z,54.35
2022-11-25T00:31:34.476Z,54.72
2022-11-25T00:34:01.945Z,53.72
2022-11-25T00:36:32.154Z,52.78
2022-11-25T00:39:01.835Z,51.55
2022-11-25T00:41:48.040Z,49.28
2022-11-25T00:44:40.892Z,48.83
2022-11-25T00:47:18.961Z,47.65
2022-11-25T00:49:49.322Z,48.28
2022-11-25T00:52:21.848Z,49.55
2022-11-25T00:54:50.163Z,49.97
2022-11-25T00:57:24.620Z,52.70
2022-11-25T00:59:52.065Z,48.95
2022-11-25T01:02:19.859Z,50.63
2022-11-25T01:04:47.934Z,49.70
2022-11-25T01:07:16.546Z,51.25
2022-11-25T01:09:43.902Z,48.65
2022-11-25T01:12:11.229Z,49.08
2022-11-25T01:14:39.651Z,51.30
2022-11-25T01:17:07.030Z,48.97
2022-11-25T01:19:40.324Z,48.08
2022-11-25T01:22:08.787Z,49.50
2022-11-25T01:24:36.162Z,51.30
2022-11-25T01:27:03.372Z,51.35
2022-11-25T01:29:32.028Z,51.15
2022-11-25T01:31:59.359Z,51.30
2022-11-25T01:34:28.464Z,52.38
2022-11-25T01:36:55.369Z,50.13
2022-11-25T01:39:32.126Z,51.72
2022-11-25T01:42:02.628Z,50.78
2022-11-25T01:44:39.510Z,50.20
2022-11-25T01:47:18.964Z,50.92
2022-11-25T01:49:58.174Z,50.95
2022-11-25T01:52:30.124Z,52.05
2022-11-25T01:55:04.688Z,49.67
2022-11-25T01:57:44.289Z,49.40
2022-11-25T02:00:12.555Z,50.80
2022-11-25T02:02:40.199Z,48.85
2022-11-25T02:05:10.785Z,53.63
2022-11-25T02:07:42.787Z,49.22
2022-11-25T02:10:16.917Z,49.80
2022-11-25T02:12:46.118Z,50.90
2022-11-25T02:15:15.622Z,48.30
2022-11-25T02:17:57.415Z,47.53
2022-11-25T02:20:25.864Z,47.25
2022-11-25T02:23:12.696Z,47.67
2022-11-25T02:25:41.850Z,48.38
2022-11-25T02:28:13.783Z,44.88
2022-11-25T02:30:41.682Z,47.28
2022-11-25T02:33:08.781Z,47.90
2022-11-25T02:35:44.192Z,49.53
2022-11-25T02:38:13.876Z,48.90
2022-11-25T02:41:03.434Z,48.08
2022-11-25T02:43:31.019Z,48.35
2022-11-25T02:46:25.970Z,50.10
2022-11-25T02:49:12.222Z,50.67
2022-11-25T02:51:42.131Z,48.15
2022-11-25T02:54:09.721Z,50.50
2022-11-25T02:56:38.858Z,49.75
2022-11-25T02:59:06.852Z,44.38
2022-11-25T03:01:35.644Z,47.20
2022-11-25T03:04:02.929Z,45.75
2022-11-25T03:06:30.503Z,45.60
2022-11-25T03:08:58.293Z,46.28
2022-11-25T03:11:46.616Z,45.38
2022-11-25T03:14:15.222Z,43.97
2022-11-25T03:16:44.047Z,45.38
2022-11-25T03:19:11.561Z,48.17
2022-11-25T03:21:38.983Z,46.33
2022-11-25T03:24:06.973Z,48.42
2022-11-25T03:26:34.055Z,48.20
2022-11-25T03:29:02.530Z,44.67
2022-11-25T03:31:32.030Z,47.58
2022-11-25T03:33:59.301Z,44.42
2022-11-25T03:36:26.256Z,46.80
2022-11-25T03:38:53.210Z,45.95
2022-11-25T03:41:23.734Z,45.50
2022-11-25T03:43:58.433Z,46.78
2022-11-25T03:46:25.917Z,47.63
2022-11-25T03:48:54.317Z,52.70
2022-11-25T03:51:21.489Z,48.83
2022-11-25T03:53:48.664Z,48.28
2022-11-25T03:56:15.719Z,50.78
2022-11-25T03:58:43.176Z,45.17
2022-11-25T04:01:10.723Z,44.53
2022-11-25T04:03:37.965Z,43.92
2022-11-25T04:06:05.045Z,45.55
2022-11-25T04:08:32.503Z,46.28
2022-11-25T04:10:59.989Z,45.65
2022-11-25T04:13:30.709Z,44.42
2022-11-25T04:15:59.852Z,47.63
2022-11-25T04:18:30.180Z,49.42
2022-11-25T04:20:58.358Z,51.97
2022-11-25T04:23:26.348Z,51.78
2022-11-25T04:25:53.370Z,55.47
2022-11-25T04:28:20.757Z,54.47
2022-11-25T04:30:48.813Z,56.30
2022-11-25T04:33:17.242Z,59.08
2022-11-25T04:35:46.158Z,57.92
2022-11-25T04:38:16.211Z,60.45
2022-11-25T04:40:43.446Z,60.67
2022-11-25T04:43:12.764Z,59.80
2022-11-25T04:46:06.403Z,57.88
2022-11-25T04:48:27.586Z,57.92
2022-11-25T04:50:55.769Z,56.83
2022-11-25T04:53:23.071Z,57.25
2022-11-25T04:55:50.459Z,57.25
2022-11-25T04:58:39.904Z,52.60
2022-11-25T05:01:06.834Z,57.47
2022-11-25T05:03:34.309Z,53.20
2022-11-25T05:06:08.578Z,53.75
2022-11-25T05:08:36.742Z,52.47
2022-11-25T05:11:03.913Z,55.67
2022-11-25T05:13:31.400Z,55.17
2022-11-25T05:16:01.748Z,56.53
2022-11-25T05:18:30.826Z,54.58
2022-11-25T05:21:03.014Z,55.92
2022-11-25T05:23:30.660Z,56.42
2022-11-25T05:26:01.655Z,54.47
2022-11-25T05:28:31.027Z,53.92
2022-11-25T05:30:58.735Z,53.35
2022-11-25T05:33:25.805Z,52.53
2022-11-25T05:36:01.441Z,52.00
2022-11-25T05:38:28.719Z,52.80
2022-11-25T05:41:02.986Z,52.78
2022-11-25T05:43:36.169Z,52.25
2022-11-25T05:46:07.953Z,53.15
2022-11-25T05:48:36.249Z,51.97
2022-11-25T05:51:06.670Z,50.67
2022-11-25T05:53:35.107Z,51.42
2022-11-25T05:56:06.632Z,51.03
2022-11-25T05:58:39.941Z,50.65
2022-11-25T06:01:13.364Z,55.00
2022-11-25T06:03:40.734Z,50.83
2022-11-25T06:06:08.949Z,49.25
2022-11-25T06:08:37.934Z,52.70
2022-11-25T06:11:07.615Z,54.17
2022-11-25T06:13:35.235Z,57.72
2022-11-25T06:16:08.594Z,53.42
2022-11-25T06:18:37.940Z,49.28
2022-11-25T06:21:06.986Z,50.38
2022-11-25T06:23:35.075Z,50.15
2022-11-25T06:26:10.586Z,47.80
2022-11-25T06:28:46.587Z,46.92
2022-11-25T06:31:16.738Z,47.58
2022-11-25T06:33:47.904Z,47.63
2022-11-25T06:36:18.323Z,49.30
2022-11-25T06:38:51.513Z,51.22
2022-11-25T06:41:21.454Z,51.40
2022-11-25T06:43:48.895Z,47.63
2022-11-25T06:46:23.028Z,48.20
2022-11-25T06:48:52.324Z,46.83
2022-11-25T06:51:21.449Z,48.55
2022-11-25T06:53:48.998Z,47.67
2022-11-25T06:56:28.436Z,48.38
2022-11-25T06:58:56.378Z,46.67
2022-11-25T07:01:28.713Z,48.72
2022-11-25T07:04:00.330Z,47.17
2022-11-25T07:06:28.110Z,47.05
2022-11-25T07:08:56.026Z,47.03
2022-11-25T07:11:25.675Z,46.55
2022-11-25T07:13:55.305Z,45.88
2022-11-25T07:16:23.095Z,46.20
2022-11-25T07:19:05.204Z,45.38
2022-11-25T07:21:34.857Z,45.97
2022-11-25T07:24:04.032Z,43.97
2022-11-25T07:26:36.700Z,45.95
2022-11-25T07:29:23.454Z,45.83
2022-11-25T07:31:59.075Z,46.83
2022-11-25T07:34:26.139Z,46.17
2022-11-25T07:36:53.577Z,45.65
2022-11-25T07:39:23.532Z,45.97
2022-11-25T07:41:53.027Z,43.28
2022-11-25T07:44:21.834Z,41.15
2022-11-25T07:46:50.499Z,42.55
2022-11-25T07:49:21.353Z,41.20
2022-11-25T07:52:04.657Z,43.00
2022-11-25T07:54:33.491Z,42.05
2022-11-25T07:57:02.838Z,41.10
2022-11-25T07:59:30.338Z,40.15
2022-11-25T08:01:57.967Z,40.65
2022-11-25T08:04:25.262Z,39.85
2022-11-25T08:06:53.589Z,41.55
2022-11-25T08:09:24.105Z,41.63
2022-11-25T08:11:52.008Z,40.88
2022-11-25T08:14:21.021Z,41.35
2022-11-25T08:16:48.380Z,40.22
2022-11-25T08:19:23.131Z,41.75
2022-11-25T08:21:54.644Z,41.70
2022-11-25T08:24:21.795Z,41.25
2022-11-25T08:26:49.372Z,40.35
2022-11-25T08:29:18.680Z,43.50
2022-11-25T08:31:47.800Z,41.63
2022-11-25T08:34:23.757Z,45.13
2022-11-25T08:36:52.094Z,43.30
2022-11-25T08:39:55.924Z,44.80
2022-11-25T08:42:12.919Z,43.42
2022-11-25T08:44:40.852Z,43.85
2022-11-25T08:47:10.170Z,39.40
2022-11-25T08:49:41.772Z,38.22
2022-11-25T08:52:10.750Z,38.30
2022-11-25T08:54:38.111Z,35.35
2022-11-25T08:57:05.515Z,36.70
2022-11-25T08:59:35.549Z,34.80
2022-11-25T09:02:03.439Z,33.50
2022-11-25T09:04:32.140Z,32.22
2022-11-25T09:07:02.209Z,33.13
2022-11-25T09:09:29.254Z,32.67
2022-11-25T09:11:56.193Z,32.90
2022-11-25T09:14:23.735Z,32.60
2022-11-25T09:16:51.051Z,32.70
2022-11-25T09:19:18.041Z,31.90
2022-11-25T09:21:45.430Z,32.80
2022-11-25T09:24:14.531Z,31.80
2022-11-25T09:26:42.532Z,34.60
2022-11-25T09:29:12.461Z,33.88
2022-11-25T09:31:41.109Z,33.20
2022-11-25T09:34:10.132Z,32.42
2022-11-25T09:36:39.638Z,33.47
2022-11-25T09:39:08.925Z,32.63
2022-11-25T09:42:18.835Z,32.05
2022-11-25T09:45:36.986Z,29.50
2022-11-25T09:48:29.796Z,29.35
2022-11-25T09:51:21.812Z,27.48
2022-11-25T09:54:08.249Z,24.30
2022-11-25T09:56:38.202Z,25.40
2022-11-25T09:59:11.465Z,22.38
2022-11-25T10:02:03.081Z,24.15
2022-11-25T10:04:46.824Z,25.40
2022-11-25T10:07:35.054Z,26.23
2022-11-25T10:10:05.093Z,25.75
2022-11-25T10:12:45.125Z,27.50
2022-11-25T10:15:43.848Z,25.73
2022-11-25T10:18:53.411Z,25.83
2022-11-25T10:21:20.848Z,26.27
2022-11-25T10:23:48.314Z,26.48
2022-11-25T10:26:18.131Z,26.75
2022-11-25T10:28:57.193Z,27.77
2022-11-25T10:31:35.917Z,26.92
2022-11-25T10:34:24.695Z,26.63
2022-11-25T10:36:54.565Z,27.50
2022-11-25T10:39:27.299Z,25.40
2022-11-25T10:42:22.360Z,24.40
2022-11-25T10:44:50.267Z,26.77
2022-11-25T10:47:45.938Z,24.92
2022-11-25T10:50:48.694Z,26.23
2022-11-25T10:53:22.926Z,27.13
2022-11-25T10:56:04.000Z,27.48
2022-11-25T10:58:40.225Z,24.30
2022-11-25T11:01:23.170Z,24.30
2022-11-25T11:04:03.689Z,25.90
2022-11-25T11:06:39.693Z,26.00
2022-11-25T11:09:26.981Z,25.85
2022-11-25T11:11:53.903Z,25.15
2022-11-25T11:14:22.528Z,24.13
2022-11-25T11:16:55.746Z,21.30
2022-11-25T11:19:29.864Z,22.83
2022-11-25T11:22:25.560Z,20.35
2022-11-25T11:25:07.684Z,22.25
2022-11-25T11:27:38.240Z,24.33
2022-11-25T11:30:21.239Z,25.08
2022-11-25T11:33:37.422Z,23.35
2022-11-25T11:36:35.919Z,24.45
2022-11-25T11:39:39.623Z,21.40
2022-11-25T11:42:35.909Z,23.63
2022-11-25T11:45:23.866Z,23.50
2022-11-25T11:48:01.742Z,22.60
2022-11-25T11:50:46.566Z,22.45
2022-11-25T11:53:36.431Z,22.65
2022-11-25T11:56:35.338Z,21.42
2022-11-25T11:59:42.604Z,21.80
2022-11-25T12:02:29.956Z,21.30
2022-11-25T12:05:27.039Z,25.92
2022-11-25T12:08:13.005Z,20.33
2022-11-25T12:10:56.854Z,21.65
2022-11-25T12:13:48.409Z,17.92
2022-11-25T12:16:24.258Z,18.00
2022-11-25T12:19:02.857Z,18.58
2022-11-25T12:21:42.393Z,17.13
2022-11-25T12:24:36.554Z,18.05
2022-11-25T12:30:04.374Z,16.05
2022-11-25T12:32:46.598Z,16.15
2022-11-25T12:35:39.512Z,17.17
2022-11-25T12:38:26.407Z,17.63
2022-11-25T12:41:05.905Z,18.75
2022-11-25T12:43:53.871Z,16.38
2022-11-25T12:46:39.268Z,14.57
2022-11-25T12:49:14.274Z,13.05
2022-11-25T12:52:00.963Z,13.70
2022-11-25T12:54:45.080Z,12.93
2022-11-25T12:57:49.686Z,13.88
2022-11-25T13:00:43.080Z,12.57
2022-11-25T13:03:37.014Z,14.20
2022-11-25T13:06:05.032Z,13.30
2022-11-25T13:08:50.798Z,13.60
2022-11-25T13:11:33.008Z,14.20
2022-11-25T13:14:01.390Z,14.30
2022-11-25T13:16:31.431Z,14.82
2022-11-25T13:18:59.204Z,14.90
2022-11-25T13:21:28.646Z,14.07
2022-11-25T13:23:58.965Z,14.40
2022-11-25T13:26:36.525Z,14.20
2022-11-25T13:29:26.960Z,14.30
2022-11-25T13:32:25.582Z,14.63
2022-11-25T13:35:27.005Z,14.57
2022-11-25T13:37:54.333Z,13.30
2022-11-25T13:40:29.687Z,14.70
2022-11-25T13:42:57.768Z,14.60
2022-11-25T13:45:43.861Z,14.75
2022-11-25T13:48:18.146Z,14.65
2022-11-25T13:51:12.747Z,14.65
2022-11-25T13:53:41.537Z,14.10
2022-11-25T13:56:25.601Z,13.13
2022-11-25T13:59:12.118Z,14.75
2022-11-25T14:01:52.076Z,15.23
2022-11-25T14:04:43.047Z,15.25
2022-11-25T14:07:49.437Z,14.50
2022-11-25T14:10:38.953Z,14.77
2022-11-25T14:13:15.004Z,14.85
2022-11-25T14:16:06.680Z,16.27
2022-11-25T14:19:21.771Z,16.30
2022-11-25T14:21:53.841Z,16.42
2022-11-25T14:24:48.268Z,17.55
2022-11-25T14:27:26.690Z,16.45
2022-11-25T14:30:00.999Z,16.90
2022-11-25T14:32:41.559Z,18.42
2022-11-25T14:35:16.994Z,17.85
2022-11-25T14:37:57.042Z,18.38
2022-11-25T14:40:31.915Z,17.85
2022-11-25T14:43:05.451Z,18.08
2022-11-25T14:45:35.715Z,18.55
2022-11-25T14:48:22.061Z,19.02
2022-11-25T14:51:20.035Z,19.42
2022-11-25T14:53:50.041Z,17.95
2022-11-25T14:56:31.441Z,18.98
2022-11-25T14:58:59.960Z,17.55
2022-11-25T15:01:33.744Z,20.00
2022-11-25T15:04:07.129Z,19.92
2022-11-25T15:06:40.499Z,20.08
2022-11-25T15:09:26.851Z,21.90
2022-11-25T15:12:07.843Z,24.17
2022-11-25T15:14:39.079Z,21.98
2022-11-25T15:17:21.631Z,21.10
2022-11-25T15:19:49.677Z,21.85
2022-11-25T15:22:23.582Z,23.85
2022-11-25T15:24:55.883Z,23.63
2022-11-25T15:27:28.082Z,23.67
2022-11-25T15:29:57.354Z,24.88
2022-11-25T15:32:34.162Z,25.15
2022-11-25T15:35:02.440Z,25.85
2022-11-25T15:37:29.682Z,28.25
2022-11-25T15:40:37.017Z,30.45
2022-11-25T15:43:27.566Z,34.55
2022-11-25T15:46:06.200Z,31.00
2022-11-25T15:48:41.351Z,34.13
2022-11-25T15:51:39.803Z,31.45
2022-11-25T15:54:13.509Z,31.40
2022-11-25T15:56:49.226Z,32.22
2022-11-25T15:59:50.790Z,30.55
2022-11-25T16:02:42.404Z,26.50
2022-11-25T16:05:24.930Z,28.15
2022-11-25T16:07:53.296Z,25.05
2022-11-25T16:10:25.356Z,27.33
2022-11-25T16:13:29.163Z,32.03
2022-11-25T16:16:12.258Z,27.20
2022-11-25T16:19:16.992Z,26.73
2022-11-25T16:21:59.126Z,26.67
2022-11-25T16:24:36.198Z,61.58
2022-11-25T16:27:07.120Z,29.75
2022-11-25T16:29:47.690Z,33.20
2022-11-25T16:32:20.714Z,29.50
2022-11-25T16:34:50.580Z,26.42
2022-11-25T16:37:17.849Z,28.60
2022-11-25T16:39:45.302Z,29.17
2022-11-25T16:42:20.124Z,27.27
2022-11-25T16:44:49.661Z,27.58
2022-11-25T16:47:19.528Z,24.08
2022-11-25T16:49:47.695Z,21.25
2022-11-25T16:52:15.626Z,23.05
2022-11-25T16:54:43.297Z,22.80
2022-11-25T16:57:20.489Z,24.95
2022-11-25T16:59:53.107Z,21.52
2022-11-25T17:02:23.581Z,17.73
2022-11-25T17:04:59.639Z,19.33
2022-11-25T17:07:33.940Z,23.73
2022-11-25T17:10:01.304Z,21.58
2022-11-25T17:12:32.722Z,22.52
2022-11-25T17:15:02.607Z,20.02
2022-11-25T17:17:40.056Z,20.63
2022-11-25T17:20:15.040Z,20.55
2022-11-25T17:22:42.500Z,21.52
2022-11-25T17:25:12.532Z,21.80
2022-11-25T17:27:40.463Z,19.35
2022-11-25T17:30:16.580Z,20.60
2022-11-25T17:32:43.604Z,17.25
2022-11-25T17:35:19.437Z,17.35
2022-11-25T17:37:47.442Z,18.73
2022-11-25T17:40:15.295Z,22.77
2022-11-25T17:42:50.757Z,29.83
2022-11-25T17:45:21.759Z,22.85
2022-11-25T17:47:49.290Z,21.83
2022-11-25T17:50:21.858Z,29.42
2022-11-25T17:52:55.380Z,32.53
2022-11-25T17:57:57.151Z,30.60
2022-11-25T18:00:33.780Z,36.47
2022-11-25T18:03:02.345Z,49.47
2022-11-25T18:05:35.991Z,50.22
2022-11-25T18:10:32.121Z,52.03
2022-11-25T18:13:00.621Z,52.58
2022-11-25T18:15:32.410Z,50.63
2022-11-25T18:18:03.661Z,45.45
2022-11-25T18:20:33.295Z,45.70
2022-11-25T18:23:01.787Z,36.20
2022-11-25T18:25:32.429Z,47.97
2022-11-25T18:28:01.094Z,41.40
2022-11-25T18:30:36.231Z,29.88
2022-11-25T18:33:09.787Z,29.25
2022-11-25T18:38:06.988Z,26.50
2022-11-25T18:40:36.661Z,26.08
2022-11-25T18:43:05.300Z,27.33
2022-11-25T18:45:37.376Z,27.58
2022-11-25T18:48:21.277Z,26.80
2022-11-25T18:50:53.479Z,31.52
2022-11-25T18:53:21.373Z,34.78
2022-11-25T18:55:50.062Z,34.67
2022-11-25T18:58:24.443Z,36.60
2022-11-25T19:00:52.825Z,37.13
2022-11-25T19:03:27.174Z,33.75
2022-11-25T19:05:55.266Z,42.05
2022-11-25T19:08:22.866Z,35.75
2022-11-25T19:10:54.908Z,33.20
2022-11-25T19:13:32.437Z,36.17
2022-11-25T19:16:08.171Z,36.00
2022-11-25T19:18:37.068Z,39.55
2022-11-25T19:21:19.661Z,32.70
2022-11-25T19:23:48.091Z,35.25
2022-11-25T19:26:24.144Z,35.67
2022-11-25T19:29:06.161Z,36.88
2022-11-25T19:31:34.919Z,37.25
2022-11-25T19:34:20.578Z,42.25
2022-11-25T19:36:48.101Z,40.22
2022-11-25T19:39:19.080Z,42.30
2022-11-25T19:41:52.453Z,40.03
2022-11-25T19:44:20.761Z,39.00
2022-11-25T19:47:14.335Z,40.40
2022-11-25T19:49:38.036Z,34.50
2022-11-25T19:52:06.162Z,36.53
2022-11-25T19:54:33.873Z,35.58
2022-11-25T19:57:01.363Z,36.53
2022-11-25T19:59:28.414Z,37.42
2022-11-25T20:01:55.733Z,35.35
2022-11-25T20:04:24.329Z,36.80
2022-11-25T20:06:53.842Z,37.97
2022-11-25T20:09:21.148Z,39.72
2022-11-25T20:11:48.930Z,35.33
2022-11-25T20:14:18.781Z,33.83
2022-11-25T20:16:50.486Z,38.97
2022-11-25T20:19:19.450Z,41.40
2022-11-25T20:21:48.064Z,49.28
2022-11-25T20:24:21.861Z,38.97
2022-11-25T20:26:50.203Z,37.75
2022-11-25T20:29:23.605Z,42.45
2022-11-25T20:31:56.909Z,31.80
2022-11-25T20:34:25.080Z,29.75
2022-11-25T20:36:53.574Z,31.35
2022-11-25T20:39:21.557Z,36.38
2022-11-25T20:41:55.620Z,37.47
2022-11-25T20:44:23.651Z,35.33
2022-11-25T20:46:54.325Z,35.78
2022-11-25T20:49:29.964Z,31.80
2022-11-25T20:51:58.361Z,34.65
2022-11-25T20:54:25.944Z,38.88
2022-11-25T20:56:57.759Z,36.35
2022-11-25T20:59:29.209Z,41.65
2022-11-25T21:01:57.046Z,45.10
2022-11-25T21:04:24.761Z,42.50
2022-11-25T21:06:52.562Z,45.00
2022-11-25T21:09:23.758Z,47.35
2022-11-25T21:11:52.188Z,47.72
2022-11-25T21:14:20.827Z,48.63
2022-11-25T21:16:48.537Z,51.88
2022-11-25T21:19:21.910Z,49.20
2022-11-25T21:21:51.428Z,34.33
2022-11-25T21:24:21.907Z,34.92
2022-11-25T21:26:50.806Z,28.00
2022-11-25T21:29:18.788Z,42.85
2022-11-25T21:31:46.399Z,44.45
2022-11-25T21:34:14.906Z,57.40
2022-11-25T21:36:46.214Z,59.35
2022-11-25T21:39:33.600Z,59.05
2022-11-25T21:42:05.322Z,62.22
2022-11-25T21:44:39.916Z,72.25
2022-11-25T21:47:13.627Z,74.90
2022-11-25T21:52:09.519Z,72.50
2022-11-25T21:54:37.044Z,69.13
2022-11-25T21:57:04.453Z,76.63
2022-11-25T21:59:32.287Z,98.22
2022-11-25T22:01:59.323Z,55.80
2022-11-25T22:04:26.786Z,59.70
2022-11-25T22:06:55.356Z,53.22
2022-11-25T22:09:24.894Z,43.58
2022-11-25T22:11:53.262Z,41.65
2022-11-25T22:14:37.243Z,39.20
2022-11-25T22:17:10.585Z,35.83
2022-11-25T22:19:37.583Z,40.05
2022-11-25T22:22:17.285Z,47.38
2022-11-25T22:24:46.043Z,49.35
2022-11-25T22:27:25.270Z,46.63
2022-11-25T22:29:53.375Z,44.65
2022-11-25T22:32:20.858Z,37.53
2022-11-25T22:34:47.902Z,37.88
2022-11-25T22:37:21.153Z,39.47
2022-11-25T22:39:48.667Z,37.67
2022-11-25T22:42:28.717Z,39.80
2022-11-25T22:44:59.144Z,38.50
2022-11-25T22:47:42.997Z,36.92
2022-11-25T22:50:22.102Z,34.60
2022-11-25T22:52:50.337Z,33.55
2022-11-25T22:55:23.712Z,35.47
2022-11-25T23:00:31.124Z,34.92
2022-11-25T23:03:00.411Z,34.08
2022-11-25T23:05:33.401Z,34.83
2022-11-25T23:10:31.620Z,35.00
2022-11-25T23:12:58.674Z,33.47
2022-11-25T23:15:26.264Z,33.72
2022-11-25T23:17:58.662Z,32.03
2022-11-25T23:20:38.239Z,33.92
2022-11-25T23:23:19.168Z,32.58
2022-11-25T23:25:47.055Z,32.70
2022-11-25T23:28:15.806Z,33.53
2022-11-25T23:30:58.118Z,34.05
2022-11-25T23:33:25.295Z,35.72
2022-11-25T23:35:52.378Z,38.35
2022-11-25T23:38:25.688Z,36.67
2022-11-25T23:40:58.984Z,35.15
2022-11-25T23:43:28.022Z,32.72
2022-11-25T23:45:56.778Z,33.55
2022-11-25T23:48:30.297Z,34.97
2022-11-25T23:50:59.484Z,37.63
2022-11-25T23:53:32.233Z,39.22
2022-11-25T23:56:00.024Z,38.17
2022-11-25T23:58:27.213Z,35.13
